Time;durP1;ratioP1;P1;durP2;ratioP2;P2;SDS_P1;SDS_P2;PMS_P1;PMS_P2;Temp;Humidity;BMP_temperature;BMP_pressure;BME280_temperature;BME280_humidity;BME280_pressure;Samples;Min_cycle;Max_cycle;Signal;HPM_P1;HPM_P2
2023/11/06 00:00:36;;;;;;;16.33;14.80;;;9.70;99.90;;;;;;5035034;28;20118;-77
2023/11/06 00:03:03;;;;;;;16.65;15.35;;;9.70;99.90;;;;;;5040116;28;20068;-76
2023/11/06 00:05:30;;;;;;;16.02;15.07;;;9.70;99.90;;;;;;5035762;28;20076;-73
2023/11/06 00:07:58;;;;;;;16.30;15.20;;;9.60;99.90;;;;;;5064869;28;20072;-75
2023/11/06 00:10:25;;;;;;;16.45;15.55;;;9.60;99.90;;;;;;5061134;28;23119;-74
2023/11/06 00:12:52;;;;;;;16.55;15.18;;;9.60;99.90;;;;;;5052970;28;20045;-77
2023/11/06 00:15:20;;;;;;;17.95;16.33;;;9.50;99.90;;;;;;5036527;28;20037;-76
2023/11/06 00:17:47;;;;;;;16.30;15.13;;;9.60;99.90;;;;;;5033529;28;20045;-77
2023/11/06 00:20:16;;;;;;;16.35;15.25;;;9.50;99.90;;;;;;5026937;28;20029;-77
2023/11/06 00:22:44;;;;;;;16.00;14.82;;;9.50;99.90;;;;;;5033025;28;20045;-76
2023/11/06 00:25:10;;;;;;;16.60;15.32;;;9.50;99.90;;;;;;5029241;28;20047;-76
2023/11/06 00:27:38;;;;;;;16.90;15.32;;;9.50;99.90;;;;;;5036538;28;20050;-77
2023/11/06 00:30:07;;;;;;;16.38;14.95;;;9.50;99.90;;;;;;5039125;28;20040;-75
2023/11/06 00:32:34;;;;;;;16.73;15.25;;;9.40;99.90;;;;;;5016307;28;20049;-76
2023/11/06 00:35:01;;;;;;;15.90;14.45;;;9.40;99.90;;;;;;5028791;28;20041;-76
2023/11/06 00:37:28;;;;;;;17.60;15.32;;;9.40;99.90;;;;;;5030222;28;21289;-77
2023/11/06 00:39:54;;;;;;;16.38;15.07;;;9.30;99.90;;;;;;5018910;28;20037;-77
2023/11/06 00:42:21;;;;;;;16.35;15.02;;;9.30;99.90;;;;;;5014981;28;20037;-77
2023/11/06 00:44:48;;;;;;;16.33;14.77;;;9.30;99.90;;;;;;5035705;28;20041;-77
2023/11/06 00:47:15;;;;;;;16.73;15.30;;;9.30;99.90;;;;;;5031845;28;20044;-76
2023/11/06 00:49:41;;;;;;;16.27;14.93;;;9.40;99.90;;;;;;5048221;28;20132;-76
2023/11/06 00:52:09;;;;;;;16.35;15.10;;;9.40;99.90;;;;;;5031273;28;20593;-74
2023/11/06 00:54:35;;;;;;;16.60;15.00;;;9.40;99.90;;;;;;5036891;28;20041;-76
2023/11/06 00:57:03;;;;;;;18.70;14.60;;;9.30;99.90;;;;;;5036962;28;20849;-77
2023/11/06 00:59:29;;;;;;;16.13;15.00;;;9.40;99.90;;;;;;5025620;28;20706;-76
2023/11/06 01:01:56;;;;;;;16.50;15.32;;;9.40;99.90;;;;;;5051798;28;20472;-75
2023/11/06 01:04:24;;;;;;;17.55;15.30;;;9.40;99.90;;;;;;5013792;28;20052;-76
2023/11/06 01:06:52;;;;;;;16.65;15.35;;;9.40;99.90;;;;;;5032115;28;20099;-76
2023/11/06 01:09:19;;;;;;;17.00;15.48;;;9.40;99.90;;;;;;5025396;28;20099;-76
2023/11/06 01:11:48;;;;;;;16.00;14.98;;;9.40;99.90;;;;;;5026473;28;20729;-76
2023/11/06 01:14:16;;;;;;;16.13;15.13;;;9.40;99.90;;;;;;5027772;28;20040;-76
2023/11/06 01:16:43;;;;;;;17.08;15.80;;;9.40;99.90;;;;;;5028050;28;20068;-76
2023/11/06 01:19:09;;;;;;;17.33;15.75;;;9.50;99.90;;;;;;5020199;28;20065;-77
2023/11/06 01:21:36;;;;;;;17.58;15.90;;;9.50;99.90;;;;;;5027539;28;20121;-75
2023/11/06 01:24:04;;;;;;;17.85;16.05;;;9.50;99.90;;;;;;5030339;28;20053;-76
2023/11/06 01:26:31;;;;;;;15.77;14.48;;;9.50;99.90;;;;;;5026618;28;20048;-74
2023/11/06 01:28:57;;;;;;;14.68;13.60;;;9.40;99.90;;;;;;5013484;28;20034;-75
2023/11/06 01:31:26;;;;;;;14.80;13.27;;;9.30;99.90;;;;;;5024200;28;20119;-75
2023/11/06 01:33:53;;;;;;;13.98;12.70;;;9.20;99.90;;;;;;5030028;28;20036;-75
2023/11/06 01:36:21;;;;;;;13.90;12.68;;;9.20;99.90;;;;;;5025949;28;20075;-75
2023/11/06 01:38:47;;;;;;;13.38;12.15;;;9.20;99.90;;;;;;5032442;28;20706;-76
2023/11/06 01:41:14;;;;;;;13.77;12.48;;;9.10;99.90;;;;;;5030160;28;20062;-76
2023/11/06 01:43:41;;;;;;;14.43;12.80;;;9.20;99.90;;;;;;5036553;28;20660;-77
2023/11/06 01:46:10;;;;;;;12.98;11.65;;;9.10;99.90;;;;;;5027147;28;20105;-77
2023/11/06 01:48:39;;;;;;;12.25;11.40;;;9.10;99.90;;;;;;5027181;28;20129;-77
2023/11/06 01:51:07;;;;;;;12.40;11.25;;;9.10;99.90;;;;;;5022955;28;20045;-76
2023/11/06 01:53:35;;;;;;;12.35;11.15;;;9.10;99.90;;;;;;5029764;28;20878;-77
2023/11/06 01:56:03;;;;;;;11.43;10.40;;;9.10;99.90;;;;;;5032040;28;20029;-77
2023/11/06 01:58:30;;;;;;;15.15;10.48;;;9.10;99.90;;;;;;5017825;28;20079;-77
2023/11/06 02:00:57;;;;;;;14.32;10.38;;;9.00;99.90;;;;;;5011440;28;20033;-77
2023/11/06 02:03:25;;;;;;;11.05;9.65;;;9.00;99.90;;;;;;5022640;28;20050;-76
2023/11/06 02:05:54;;;;;;;10.45;9.55;;;9.00;99.90;;;;;;5023632;28;20044;-75
2023/11/06 02:08:20;;;;;;;10.48;8.95;;;9.00;99.90;;;;;;5048871;28;20047;-76
2023/11/06 02:10:47;;;;;;;16.10;9.35;;;9.00;99.90;;;;;;5028810;28;20037;-77
2023/11/06 02:13:14;;;;;;;10.70;9.55;;;9.00;99.90;;;;;;5046913;28;20124;-76
2023/11/06 02:15:41;;;;;;;16.58;11.07;;;9.00;99.90;;;;;;5032089;28;20050;-77
2023/11/06 02:18:08;;;;;;;10.93;9.18;;;9.00;99.90;;;;;;5031024;28;20037;-77
2023/11/06 02:20:38;;;;;;;11.43;9.10;;;9.00;99.90;;;;;;5023737;28;20049;-76
2023/11/06 02:23:07;;;;;;;9.48;8.52;;;9.00;99.90;;;;;;5027243;28;20056;-76
2023/11/06 02:25:35;;;;;;;11.45;9.80;;;9.00;99.90;;;;;;5012544;28;20060;-77
2023/11/06 02:28:03;;;;;;;11.07;9.43;;;9.10;99.90;;;;;;5026678;28;20425;-77
2023/11/06 02:30:30;;;;;;;10.50;9.20;;;9.10;99.90;;;;;;5026098;28;20193;-77
2023/11/06 02:32:57;;;;;;;10.55;9.52;;;9.10;99.90;;;;;;5024982;28;20099;-76
2023/11/06 02:35:24;;;;;;;11.60;10.57;;;9.10;99.90;;;;;;5022436;28;20122;-76
2023/11/06 02:37:51;;;;;;;11.20;10.32;;;9.20;99.90;;;;;;5026443;28;20137;-77
2023/11/06 02:40:19;;;;;;;11.00;10.23;;;9.20;99.90;;;;;;5026071;28;20033;-77
2023/11/06 02:42:46;;;;;;;11.65;10.95;;;9.20;99.90;;;;;;5008780;28;20448;-74
2023/11/06 02:45:12;;;;;;;12.00;10.57;;;9.20;99.90;;;;;;5030072;28;20437;-77
2023/11/06 02:47:39;;;;;;;11.98;10.98;;;9.20;99.90;;;;;;5024647;28;20804;-76
2023/11/06 02:50:07;;;;;;;10.80;9.80;;;9.20;99.90;;;;;;5027249;28;20049;-76
2023/11/06 02:52:34;;;;;;;11.23;9.98;;;9.20;99.90;;;;;;5025721;28;20064;-76
2023/11/06 02:55:00;;;;;;;11.50;10.57;;;9.20;99.90;;;;;;5024747;28;20090;-76
2023/11/06 02:57:29;;;;;;;11.85;11.23;;;9.20;99.90;;;;;;5013661;28;20087;-77
2023/11/06 02:59:56;;;;;;;11.57;10.68;;;9.20;99.90;;;;;;5026060;28;20036;-76
2023/11/06 03:02:22;;;;;;;10.73;9.77;;;9.20;99.90;;;;;;5027174;28;20040;-76
2023/11/06 03:04:49;;;;;;;11.50;8.95;;;9.20;99.90;;;;;;5003442;28;20053;-76
2023/11/06 03:07:16;;;;;;;8.93;8.23;;;9.10;99.90;;;;;;5027449;28;20071;-74
2023/11/06 03:09:45;;;;;;;7.22;6.55;;;9.10;99.90;;;;;;5025712;28;20044;-75
2023/11/06 03:12:12;;;;;;;10.02;5.70;;;9.00;99.90;;;;;;5029324;28;20079;-75
2023/11/06 03:14:39;;;;;;;9.60;5.03;;;8.90;99.90;;;;;;5010646;28;20397;-76
2023/11/06 03:17:07;;;;;;;5.35;4.65;;;8.80;99.90;;;;;;5025036;28;20417;-73
2023/11/06 03:19:35;;;;;;;7.95;4.57;;;8.80;99.90;;;;;;5020436;28;20501;-72
2023/11/06 03:22:02;;;;;;;13.43;4.43;;;8.70;99.90;;;;;;5026954;28;20117;-72
2023/11/06 03:24:29;;;;;;;9.75;3.85;;;8.70;99.90;;;;;;5023085;28;20083;-73
2023/11/06 03:26:55;;;;;;;8.57;4.05;;;8.60;99.90;;;;;;5028176;28;20103;-73
2023/11/06 03:29:22;;;;;;;5.65;3.88;;;8.60;99.90;;;;;;5006777;28;20113;-73
2023/11/06 03:31:51;;;;;;;7.20;3.20;;;8.60;99.90;;;;;;5026341;28;20029;-76
2023/11/06 03:34:18;;;;;;;8.30;4.13;;;8.60;99.90;;;;;;5025356;28;20086;-75
2023/11/06 03:36:45;;;;;;;8.30;3.88;;;8.60;99.90;;;;;;5024731;28;20042;-71
2023/11/06 03:39:13;;;;;;;9.23;3.10;;;8.60;99.90;;;;;;5030105;28;20123;-72
2023/11/06 03:41:40;;;;;;;7.68;3.47;;;8.50;99.90;;;;;;5020234;28;20079;-72
2023/11/06 03:44:07;;;;;;;6.85;3.70;;;8.60;99.90;;;;;;5024302;28;20084;-75
2023/11/06 03:46:35;;;;;;;5.95;2.75;;;8.50;99.90;;;;;;5023363;28;20122;-73
2023/11/06 03:49:03;;;;;;;6.63;3.70;;;8.50;99.90;;;;;;5026684;28;20041;-74
2023/11/06 03:51:30;;;;;;;11.07;3.83;;;8.50;99.90;;;;;;5020651;28;20198;-73
2023/11/06 03:54:00;;;;;;;6.22;3.58;;;8.50;99.90;;;;;;5024737;28;20103;-74
2023/11/06 03:56:26;;;;;;;8.02;3.50;;;8.50;99.90;;;;;;5025034;28;20049;-74
2023/11/06 03:58:53;;;;;;;9.68;4.65;;;8.50;99.90;;;;;;5031286;28;20156;-72
2023/11/06 04:01:22;;;;;;;6.90;4.30;;;8.50;99.90;;;;;;5025357;28;20547;-73
2023/11/06 04:03:49;;;;;;;15.88;5.07;;;8.50;99.90;;;;;;5015305;28;20053;-73
2023/11/06 04:06:17;;;;;;;11.05;4.88;;;8.50;99.90;;;;;;5014465;28;20072;-74
2023/11/06 04:08:44;;;;;;;9.75;4.95;;;8.50;99.90;;;;;;5027398;28;20752;-73
2023/11/06 04:11:12;;;;;;;11.18;5.40;;;8.50;99.90;;;;;;5050306;28;20479;-73
2023/11/06 04:13:38;;;;;;;7.55;4.68;;;8.50;99.90;;;;;;5058016;28;20040;-72
2023/11/06 04:16:06;;;;;;;12.18;5.70;;;8.60;99.90;;;;;;5044894;28;20048;-73
2023/11/06 04:18:33;;;;;;;11.32;5.75;;;8.60;99.90;;;;;;5024907;28;20041;-74
2023/11/06 04:21:01;;;;;;;9.20;5.35;;;8.60;99.90;;;;;;5046780;28;20252;-73
2023/11/06 04:23:29;;;;;;;6.70;4.53;;;8.60;99.90;;;;;;5028603;28;20076;-74
2023/11/06 04:25:56;;;;;;;8.85;5.47;;;8.60;99.90;;;;;;5024216;28;20115;-74
2023/11/06 04:28:23;;;;;;;6.00;4.10;;;8.60;99.90;;;;;;5030703;28;20052;-74
2023/11/06 04:30:51;;;;;;;13.57;5.75;;;8.60;99.90;;;;;;5011365;28;20906;-73
2023/11/06 04:33:18;;;;;;;8.30;4.85;;;8.60;99.90;;;;;;5027623;28;20068;-73
2023/11/06 04:35:45;;;;;;;5.95;4.50;;;8.50;99.90;;;;;;5010438;28;21215;-73
2023/11/06 04:38:11;;;;;;;8.68;5.05;;;8.60;99.90;;;;;;5031787;28;20049;-74
2023/11/06 04:40:38;;;;;;;7.90;4.88;;;8.60;99.90;;;;;;5030044;28;20657;-73
2023/11/06 04:43:05;;;;;;;6.65;5.18;;;8.60;99.90;;;;;;5030056;28;20063;-74
2023/11/06 04:45:32;;;;;;;6.88;5.30;;;8.60;99.90;;;;;;5008842;28;20048;-74
2023/11/06 04:47:58;;;;;;;12.57;5.72;;;8.60;99.90;;;;;;5032515;28;20060;-74
2023/11/06 04:50:25;;;;;;;8.18;5.18;;;8.60;99.90;;;;;;5036369;28;20064;-72
2023/11/06 04:52:52;;;;;;;10.80;5.38;;;8.60;99.90;;;;;;5036605;28;20060;-73
2023/11/06 04:55:20;;;;;;;11.45;6.00;;;8.60;99.90;;;;;;5029988;28;20033;-74
2023/11/06 04:57:47;;;;;;;9.50;5.07;;;8.60;99.90;;;;;;5032066;28;21453;-73
2023/11/06 05:00:14;;;;;;;8.68;4.97;;;8.60;99.90;;;;;;5035702;28;20105;-74
2023/11/06 05:02:41;;;;;;;9.80;5.03;;;8.70;99.90;;;;;;5031117;28;20656;-74
2023/11/06 05:05:09;;;;;;;13.77;5.82;;;8.60;99.90;;;;;;5029653;28;20033;-74
2023/11/06 05:07:36;;;;;;;10.48;5.25;;;8.60;99.90;;;;;;5012645;28;20049;-74
2023/11/06 05:10:06;;;;;;;9.13;5.30;;;8.60;99.90;;;;;;5031120;28;20056;-74
2023/11/06 05:12:35;;;;;;;5.90;5.18;;;8.70;99.90;;;;;;5029063;28;20056;-74
2023/11/06 05:15:03;;;;;;;8.88;6.70;;;8.70;99.90;;;;;;5029675;28;20142;-75
2023/11/06 05:17:30;;;;;;;8.15;5.10;;;8.70;99.90;;;;;;5030593;28;20048;-74
2023/11/06 05:19:57;;;;;;;7.72;5.00;;;8.70;99.90;;;;;;5017130;28;20047;-75
2023/11/06 05:22:24;;;;;;;10.38;6.30;;;8.70;99.90;;;;;;5035076;28;20141;-76
2023/11/06 05:24:51;;;;;;;13.70;6.93;;;8.70;99.90;;;;;;5030669;28;20049;-75
2023/11/06 05:27:18;;;;;;;6.47;5.88;;;8.70;99.90;;;;;;5032805;28;20053;-75
2023/11/06 05:29:45;;;;;;;6.90;6.25;;;8.70;99.90;;;;;;5013879;28;20041;-75
2023/11/06 05:32:11;;;;;;;9.75;6.18;;;8.70;99.90;;;;;;5019611;28;20617;-74
2023/11/06 05:34:39;;;;;;;9.93;6.80;;;8.70;99.90;;;;;;5032113;28;20069;-75
2023/11/06 05:37:06;;;;;;;10.57;6.88;;;8.80;99.90;;;;;;5033259;28;20033;-75
2023/11/06 05:39:36;;;;;;;7.18;6.47;;;8.80;99.90;;;;;;5029754;28;20046;-75
2023/11/06 05:42:02;;;;;;;9.00;6.70;;;8.80;99.90;;;;;;5027729;28;20768;-73
2023/11/06 05:44:31;;;;;;;7.90;7.05;;;8.80;99.90;;;;;;5032743;28;20613;-74
2023/11/06 05:46:57;;;;;;;8.50;6.70;;;8.80;99.90;;;;;;5032749;28;20048;-75
2023/11/06 05:49:24;;;;;;;7.28;6.68;;;8.80;99.90;;;;;;5018368;28;20041;-75
2023/11/06 05:51:52;;;;;;;9.20;7.53;;;8.80;99.90;;;;;;5009977;28;20183;-75
2023/11/06 05:54:19;;;;;;;8.68;7.55;;;8.80;99.90;;;;;;5032454;28;20482;-74
2023/11/06 05:56:46;;;;;;;11.15;7.70;;;8.70;99.90;;;;;;5011180;28;20048;-74
2023/11/06 05:59:13;;;;;;;8.30;7.65;;;8.80;99.90;;;;;;5032395;28;20044;-75
2023/11/06 06:01:40;;;;;;;10.93;7.28;;;8.80;99.90;;;;;;5031158;28;20669;-75
2023/11/06 06:04:07;;;;;;;9.43;8.40;;;8.70;99.90;;;;;;5030495;28;21277;-76
2023/11/06 06:06:34;;;;;;;9.02;7.95;;;8.80;99.90;;;;;;5012034;28;20037;-75
2023/11/06 06:09:01;;;;;;;10.20;9.05;;;8.70;99.90;;;;;;5031944;28;20551;-75
2023/11/06 06:11:28;;;;;;;11.38;8.95;;;8.80;99.90;;;;;;5032072;28;20057;-76
2023/11/06 06:13:54;;;;;;;10.52;9.60;;;8.80;99.90;;;;;;5030792;28;21027;-75
2023/11/06 06:16:21;;;;;;;12.50;11.38;;;8.80;99.90;;;;;;5031719;28;20120;-76
2023/11/06 06:18:48;;;;;;;11.07;10.18;;;8.80;99.90;;;;;;5031844;28;20048;-75
2023/11/06 06:21:15;;;;;;;11.70;10.15;;;8.80;99.90;;;;;;5035582;28;20107;-74
2023/11/06 06:23:42;;;;;;;12.43;11.23;;;8.80;99.90;;;;;;5025926;28;20645;-75
2023/11/06 06:26:09;;;;;;;12.35;11.18;;;8.80;99.90;;;;;;5033992;28;20052;-74
2023/11/06 06:28:36;;;;;;;11.73;10.52;;;8.80;99.90;;;;;;5014747;28;20037;-73
2023/11/06 06:31:04;;;;;;;12.07;10.82;;;8.70;99.90;;;;;;5029036;28;20103;-74
2023/11/06 06:33:30;;;;;;;11.02;10.00;;;8.70;99.90;;;;;;5026197;28;20037;-73
2023/11/06 06:35:57;;;;;;;13.13;11.25;;;8.70;99.90;;;;;;5028447;28;20030;-73
2023/11/06 06:38:24;;;;;;;11.27;10.48;;;8.70;99.90;;;;;;5014464;28;20527;-73
2023/11/06 06:40:51;;;;;;;12.50;11.20;;;8.70;99.90;;;;;;5012447;28;20651;-72
2023/11/06 06:43:18;;;;;;;12.43;11.57;;;8.60;99.90;;;;;;5028571;28;20439;-73
2023/11/06 06:45:45;;;;;;;15.10;13.70;;;8.60;99.90;;;;;;5028226;28;20045;-73
2023/11/06 06:48:15;;;;;;;15.90;14.35;;;8.50;99.90;;;;;;5032323;28;20145;-73
2023/11/06 06:50:42;;;;;;;23.20;13.98;;;8.50;99.90;;;;;;5029467;28;20551;-74
2023/11/06 06:53:10;;;;;;;14.98;13.57;;;8.50;99.90;;;;;;5033423;28;20045;-74
2023/11/06 06:55:37;;;;;;;13.88;12.93;;;8.50;99.90;;;;;;5025609;28;20029;-74
2023/11/06 06:58:04;;;;;;;13.40;12.50;;;8.50;99.90;;;;;;5031489;28;20044;-74
2023/11/06 07:00:32;;;;;;;15.00;13.40;;;8.50;99.90;;;;;;5035201;28;20041;-74
2023/11/06 07:03:00;;;;;;;14.15;13.35;;;8.50;99.90;;;;;;5025373;28;20047;-74
2023/11/06 07:05:27;;;;;;;14.20;13.40;;;8.50;99.90;;;;;;5028547;28;21738;-74
2023/11/06 07:07:55;;;;;;;16.05;14.07;;;8.60;99.90;;;;;;5026540;28;20041;-74
2023/11/06 07:10:22;;;;;;;16.52;14.90;;;8.60;99.90;;;;;;5025346;28;20389;-74
2023/11/06 07:12:49;;;;;;;15.77;14.70;;;8.60;99.90;;;;;;5032106;28;20126;-72
2023/11/06 07:15:16;;;;;;;16.05;14.63;;;8.60;99.90;;;;;;5031761;28;20495;-75
2023/11/06 07:17:43;;;;;;;17.85;16.42;;;8.60;99.90;;;;;;5028262;28;20111;-74
2023/11/06 07:20:15;;;;;;;16.90;15.40;;;8.60;99.90;;;;;;5032764;28;20053;-74
2023/11/06 07:22:42;;;;;;;17.23;15.68;;;8.60;99.90;;;;;;5015669;28;20047;-74
2023/11/06 07:25:09;;;;;;;17.00;15.45;;;8.60;99.90;;;;;;5050766;28;20551;-73
2023/11/06 07:27:37;;;;;;;16.45;15.35;;;8.70;99.90;;;;;;5035626;28;20045;-72
2023/11/06 07:30:04;;;;;;;17.90;16.02;;;8.70;99.90;;;;;;5030997;28;20072;-73
2023/11/06 07:32:32;;;;;;;16.33;15.07;;;8.80;99.90;;;;;;5028008;28;20088;-75
2023/11/06 07:34:59;;;;;;;20.30;16.30;;;8.80;99.90;;;;;;5026355;28;20049;-75
2023/11/06 07:37:26;;;;;;;16.73;15.55;;;8.80;99.90;;;;;;5013836;28;20115;-74
2023/11/06 07:39:53;;;;;;;17.02;15.70;;;8.80;99.90;;;;;;5027367;28;20462;-74
2023/11/06 07:42:20;;;;;;;16.88;15.50;;;8.90;99.90;;;;;;5029570;28;20033;-74
2023/11/06 07:44:47;;;;;;;17.77;15.98;;;8.90;99.90;;;;;;5028560;28;20045;-74
2023/11/06 07:47:14;;;;;;;17.95;16.42;;;9.00;99.90;;;;;;5027682;28;20055;-74
2023/11/06 07:49:41;;;;;;;18.20;16.33;;;9.00;99.90;;;;;;5030466;28;20102;-74
2023/11/06 07:52:09;;;;;;;18.55;17.02;;;9.10;99.90;;;;;;5032170;28;20095;-73
2023/11/06 07:54:41;;;;;;;19.00;17.05;;;9.10;99.90;;;;;;5033943;28;20053;-72
2023/11/06 07:57:09;;;;;;;17.85;16.58;;;9.10;99.90;;;;;;5032797;28;20061;-73
2023/11/06 07:59:42;;;;;;;18.13;16.55;;;9.20;99.90;;;;;;5016314;28;20038;-74
2023/11/06 08:02:10;;;;;;;20.33;18.70;;;9.20;99.90;;;;;;5031882;28;20176;-75
2023/11/06 08:04:38;;;;;;;19.55;17.60;;;9.20;99.90;;;;;;5032018;28;20532;-73
2023/11/06 08:07:06;;;;;;;19.52;17.58;;;9.30;99.90;;;;;;5029763;28;20052;-72
2023/11/06 08:09:35;;;;;;;18.75;17.08;;;9.30;99.90;;;;;;5033152;28;20051;-76
2023/11/06 08:12:03;;;;;;;20.70;18.80;;;9.30;99.90;;;;;;5008055;28;20041;-74
2023/11/06 08:14:34;;;;;;;20.10;18.10;;;9.40;99.90;;;;;;5017536;28;20050;-74
2023/11/06 08:17:01;;;;;;;20.45;18.25;;;9.40;99.90;;;;;;5012681;28;20084;-72
2023/11/06 08:19:29;;;;;;;28.45;20.48;;;9.40;99.90;;;;;;5044641;28;20066;-72
2023/11/06 08:21:56;;;;;;;20.38;18.52;;;9.40;99.90;;;;;;5054007;28;20030;-72
2023/11/06 08:24:27;;;;;;;21.50;19.25;;;9.50;99.90;;;;;;5069427;28;20128;-74
2023/11/06 08:26:55;;;;;;;21.17;19.35;;;9.50;99.90;;;;;;5039425;28;20055;-74
2023/11/06 08:29:22;;;;;;;22.05;20.05;;;9.50;99.90;;;;;;5039172;28;20048;-74
2023/11/06 08:31:49;;;;;;;20.85;19.08;;;9.60;99.90;;;;;;5023086;28;20207;-74
2023/11/06 08:34:16;;;;;;;21.63;19.52;;;9.60;99.90;;;;;;5019974;28;20639;-73
2023/11/06 08:36:44;;;;;;;26.30;19.73;;;9.60;99.90;;;;;;5028139;28;20091;-73
2023/11/06 08:39:12;;;;;;;25.15;20.13;;;9.70;99.90;;;;;;5030570;28;20025;-74
2023/11/06 08:41:40;;;;;;;22.48;20.15;;;9.70;99.90;;;;;;5031728;28;21956;-73
2023/11/06 08:44:07;;;;;;;22.35;20.20;;;9.70;99.90;;;;;;5015398;28;20141;-72
2023/11/06 08:46:34;;;;;;;23.60;21.20;;;9.70;99.90;;;;;;5032748;28;20118;-72
2023/11/06 08:49:01;;;;;;;22.60;20.38;;;9.70;99.90;;;;;;5029918;28;20140;-74
2023/11/06 08:51:33;;;;;;;21.75;19.75;;;9.80;99.90;;;;;;5032759;28;20695;-74
2023/11/06 08:54:03;;;;;;;22.77;20.65;;;9.80;99.90;;;;;;5010671;28;20041;-74
2023/11/06 08:56:30;;;;;;;22.55;20.30;;;9.80;99.90;;;;;;5028446;28;20069;-73
2023/11/06 08:58:58;;;;;;;23.70;21.33;;;9.80;99.90;;;;;;5023336;28;20073;-74
2023/11/06 09:01:25;;;;;;;22.27;20.23;;;9.90;99.90;;;;;;5032900;28;20045;-74
2023/11/06 09:03:55;;;;;;;24.15;22.13;;;10.00;99.90;;;;;;5025239;28;20091;-74
2023/11/06 09:06:22;;;;;;;22.95;21.40;;;10.30;99.90;;;;;;5035488;28;20675;-73
2023/11/06 09:08:49;;;;;;;23.67;21.52;;;10.50;99.90;;;;;;5024456;28;20081;-72
2023/11/06 09:11:16;;;;;;;23.85;20.88;;;10.50;99.90;;;;;;5023994;28;20111;-74
2023/11/06 09:13:44;;;;;;;24.63;22.80;;;10.60;99.90;;;;;;5023718;28;20049;-73
2023/11/06 09:16:11;;;;;;;24.95;22.83;;;10.70;99.90;;;;;;5029498;28;20040;-73
2023/11/06 09:18:39;;;;;;;26.60;23.02;;;10.60;99.90;;;;;;5033708;28;20083;-74
2023/11/06 09:21:12;;;;;;;25.05;23.02;;;10.50;99.90;;;;;;5029427;28;20524;-73
2023/11/06 09:23:39;;;;;;;24.23;22.13;;;10.30;99.90;;;;;;5029203;28;20118;-74
2023/11/06 09:26:09;;;;;;;25.35;22.75;;;10.30;99.90;;;;;;5027102;28;20042;-74
2023/11/06 09:28:38;;;;;;;24.40;22.55;;;10.20;99.90;;;;;;5033108;28;20045;-74
2023/11/06 09:31:04;;;;;;;25.58;23.50;;;10.30;99.90;;;;;;5010204;28;20052;-73
2023/11/06 09:33:32;;;;;;;25.08;22.90;;;10.30;99.90;;;;;;5029634;28;20048;-74
2023/11/06 09:35:59;;;;;;;24.40;22.52;;;10.40;99.90;;;;;;5028608;28;20045;-74
2023/11/06 09:38:26;;;;;;;24.55;22.33;;;10.30;99.90;;;;;;5020880;28;22327;-75
2023/11/06 09:40:53;;;;;;;25.10;23.05;;;10.40;99.90;;;;;;5026241;28;20088;-73
2023/11/06 09:43:20;;;;;;;27.13;23.48;;;10.40;99.90;;;;;;5026857;28;20049;-75
2023/11/06 09:45:48;;;;;;;23.70;21.33;;;10.30;99.90;;;;;;5024233;28;20049;-73
2023/11/06 09:48:18;;;;;;;25.73;23.25;;;10.40;99.90;;;;;;5027847;28;20036;-72
2023/11/06 09:50:48;;;;;;;24.55;22.50;;;10.60;99.90;;;;;;5027418;28;20102;-74
2023/11/06 09:53:16;;;;;;;24.80;22.65;;;10.70;99.90;;;;;;5023699;28;20594;-74
2023/11/06 09:55:45;;;;;;;25.50;22.90;;;10.70;99.90;;;;;;5024600;28;20041;-73
2023/11/06 09:58:12;;;;;;;24.20;22.27;;;10.60;99.90;;;;;;5028584;28;20076;-74
2023/11/06 10:00:39;;;;;;;23.20;20.88;;;10.60;99.90;;;;;;5030524;28;20045;-74
2023/11/06 10:03:06;;;;;;;23.42;21.67;;;10.80;99.90;;;;;;5026522;28;20044;-74
2023/11/06 10:05:33;;;;;;;24.08;21.77;;;10.90;99.90;;;;;;5032952;28;20550;-74
2023/11/06 10:08:00;;;;;;;24.15;22.15;;;10.90;99.90;;;;;;5026882;28;20080;-73
2023/11/06 10:10:28;;;;;;;23.50;21.63;;;11.00;99.90;;;;;;5031555;28;20036;-74
2023/11/06 10:13:03;;;;;;;26.27;21.80;;;10.90;99.90;;;;;;5004638;28;20107;-72
2023/11/06 10:15:34;;;;;;;23.73;21.77;;;11.00;99.90;;;;;;5022803;28;20098;-73
2023/11/06 10:18:27;;;;;;;24.27;22.02;;;10.90;99.90;;;;;;5017871;28;20052;-75
2023/11/06 10:20:55;;;;;;;23.23;21.63;;;10.90;99.90;;;;;;5022745;28;20041;-73
2023/11/06 10:23:32;;;;;;;23.77;21.98;;;10.80;99.90;;;;;;5012811;28;20730;-73
2023/11/06 10:26:17;;;;;;;24.52;22.83;;;10.80;99.90;;;;;;5022463;28;20049;-73
2023/11/06 10:28:44;;;;;;;24.55;22.45;;;10.80;99.90;;;;;;5011085;28;20041;-74
2023/11/06 10:31:11;;;;;;;25.02;22.63;;;10.90;99.90;;;;;;5024403;28;20115;-73
2023/11/06 10:33:38;;;;;;;27.35;22.83;;;11.00;99.90;;;;;;5030972;28;20033;-74
2023/11/06 10:36:15;;;;;;;23.02;21.13;;;11.10;99.90;;;;;;5020051;28;20060;-72
2023/11/06 10:38:43;;;;;;;24.88;21.25;;;11.30;99.90;;;;;;5026376;28;20045;-73
2023/11/06 10:41:27;;;;;;;23.23;21.25;;;11.30;99.90;;;;;;5023478;28;20680;-74
2023/11/06 10:44:02;;;;;;;22.00;20.13;;;11.30;99.90;;;;;;5028691;28;20665;-72
2023/11/06 10:46:32;;;;;;;23.35;21.13;;;11.50;99.90;;;;;;5011739;28;21047;-73
2023/11/06 10:49:35;;;;;;;23.08;20.88;;;11.50;99.90;;;;;;5022442;28;20045;-72
2023/11/06 10:52:06;;;;;;;22.38;20.38;;;11.50;99.90;;;;;;5024725;28;20056;-73
2023/11/06 10:54:35;;;;;;;23.80;21.63;;;11.40;99.90;;;;;;5028308;28;20335;-73
2023/11/06 10:57:04;;;;;;;27.08;21.45;;;11.50;99.90;;;;;;5025214;28;20138;-73
2023/11/06 10:59:31;;;;;;;23.08;20.83;;;11.80;99.90;;;;;;5025555;28;20045;-73
2023/11/06 11:01:58;;;;;;;23.25;21.08;;;12.20;99.90;;;;;;5018588;28;20144;-73
2023/11/06 11:04:29;;;;;;;21.92;19.92;;;12.40;99.90;;;;;;5023699;28;20077;-71
2023/11/06 11:06:59;;;;;;;21.98;20.23;;;12.10;99.90;;;;;;5026627;28;20045;-73
2023/11/06 11:09:26;;;;;;;23.30;21.33;;;12.10;99.90;;;;;;5021124;28;20055;-72
2023/11/06 11:11:54;;;;;;;24.08;22.17;;;12.30;99.90;;;;;;5030047;28;20770;-72
2023/11/06 11:14:21;;;;;;;23.17;21.48;;;12.20;99.90;;;;;;5025434;28;20136;-73
2023/11/06 11:16:52;;;;;;;22.70;21.10;;;12.10;99.90;;;;;;5025281;28;20220;-72
2023/11/06 11:19:20;;;;;;;23.38;21.52;;;12.10;99.90;;;;;;5024220;28;20091;-73
2023/11/06 11:22:09;;;;;;;22.65;20.90;;;12.30;99.90;;;;;;5026869;28;20053;-73
2023/11/06 11:24:44;;;;;;;23.10;21.13;;;11.90;99.90;;;;;;5021698;28;20057;-74
2023/11/06 11:27:16;;;;;;;23.20;21.15;;;11.90;99.90;;;;;;5030467;28;20045;-75
2023/11/06 11:29:53;;;;;;;23.20;21.30;;;11.80;99.90;;;;;;5032585;28;20052;-75
2023/11/06 11:32:27;;;;;;;25.10;23.17;;;11.80;99.90;;;;;;5031276;28;20099;-75
2023/11/06 11:34:57;;;;;;;23.42;21.60;;;11.80;99.90;;;;;;5025785;28;20292;-74
2023/11/06 11:37:27;;;;;;;24.38;22.77;;;11.70;99.90;;;;;;5017392;28;20065;-75
2023/11/06 11:39:59;;;;;;;24.52;22.65;;;11.80;99.90;;;;;;5019110;28;20135;-72
2023/11/06 11:42:26;;;;;;;23.58;22.13;;;11.70;99.90;;;;;;5010029;28;20053;-74
2023/11/06 11:45:07;;;;;;;23.95;21.98;;;11.60;99.90;;;;;;5007137;28;20072;-71
2023/11/06 11:47:49;;;;;;;24.45;22.52;;;11.60;99.90;;;;;;5023348;28;20053;-75
2023/11/06 11:50:36;;;;;;;23.15;21.45;;;11.50;99.90;;;;;;5025170;28;20037;-74
2023/11/06 11:53:03;;;;;;;24.48;22.55;;;11.50;99.90;;;;;;5006117;28;20057;-74
2023/11/06 11:55:35;;;;;;;24.65;22.65;;;11.50;99.90;;;;;;5023890;28;20161;-74
2023/11/06 11:58:06;;;;;;;23.30;21.45;;;11.50;99.90;;;;;;5022204;28;20130;-74
2023/11/06 12:00:44;;;;;;;24.17;22.00;;;11.50;99.90;;;;;;5006018;28;20042;-73
2023/11/06 12:03:17;;;;;;;23.08;21.10;;;11.50;99.90;;;;;;5020881;28;20110;-74
2023/11/06 12:05:55;;;;;;;24.42;22.33;;;11.50;99.90;;;;;;5017587;28;20046;-75
2023/11/06 12:08:26;;;;;;;24.60;22.08;;;11.60;99.90;;;;;;5023613;28;20140;-74
2023/11/06 12:10:56;;;;;;;22.17;20.25;;;11.60;99.90;;;;;;5024497;28;20099;-75
2023/11/06 12:13:24;;;;;;;23.35;21.42;;;11.60;99.90;;;;;;5001454;28;20075;-74
2023/11/06 12:15:52;;;;;;;24.13;21.98;;;11.70;99.90;;;;;;5028056;28;20380;-75
2023/11/06 12:18:21;;;;;;;22.05;20.08;;;11.70;99.90;;;;;;5025160;28;20068;-74
2023/11/06 12:20:56;;;;;;;22.77;20.67;;;11.80;99.90;;;;;;5027721;28;20140;-73
2023/11/06 12:23:33;;;;;;;22.23;20.40;;;11.80;99.90;;;;;;5033081;28;20041;-72
2023/11/06 12:26:12;;;;;;;23.20;21.17;;;12.00;99.90;;;;;;5051914;28;20132;-75
2023/11/06 12:28:43;;;;;;;24.48;21.95;;;12.10;99.90;;;;;;5054656;28;20057;-73
2023/11/06 12:31:11;;;;;;;22.45;20.40;;;12.00;99.90;;;;;;5033481;28;20072;-75
2023/11/06 12:33:38;;;;;;;23.38;21.33;;;11.90;99.90;;;;;;5015687;28;20053;-74
2023/11/06 12:36:06;;;;;;;23.38;21.48;;;11.90;99.90;;;;;;5012190;28;20164;-76
2023/11/06 12:38:37;;;;;;;23.88;21.60;;;11.90;99.90;;;;;;5027336;28;20569;-75
2023/11/06 12:41:05;;;;;;;24.20;21.83;;;11.90;99.90;;;;;;5027872;28;20064;-76
2023/11/06 12:43:34;;;;;;;22.75;20.45;;;11.90;99.90;;;;;;5027604;28;20122;-75